createdAt,value
2018-01-05T01:39:52.352Z,10.50
2018-01-05T01:42:19.927Z,10.70
2018-01-05T01:44:48.328Z,11.00
2018-01-05T01:47:15.881Z,11.30
2018-01-05T01:49:43.515Z,11.50
2018-01-05T01:52:11.552Z,11.30
2018-01-05T01:54:39.596Z,11.40
2018-01-05T01:57:08.673Z,11.40
2018-01-05T01:59:36.299Z,11.40
2018-01-05T02:02:03.923Z,11.30
2018-01-05T02:04:31.552Z,11.20
2018-01-05T02:06:59.189Z,11.30
2018-01-05T02:09:26.811Z,11.40
2018-01-05T02:11:55.216Z,11.30
2018-01-05T02:14:22.777Z,11.30
2018-01-05T02:16:50.320Z,11.30
2018-01-05T02:19:18.711Z,11.40
2018-01-05T02:21:46.647Z,11.30
2018-01-05T02:24:14.214Z,11.40
2018-01-05T02:26:42.741Z,11.60
2018-01-05T02:29:10.355Z,11.50
2018-01-05T02:31:38.731Z,11.30
2018-01-05T02:34:16.133Z,11.20
2018-01-05T02:36:44.447Z,11.30
2018-01-05T02:39:12.053Z,11.30
2018-01-05T02:41:39.623Z,11.40
2018-01-05T02:44:07.960Z,11.30
2018-01-05T02:46:35.560Z,11.30
2018-01-05T02:49:04.086Z,11.50
2018-01-05T02:51:31.677Z,11.40
2018-01-05T02:53:59.372Z,11.50
2018-01-05T02:56:26.951Z,11.30
2018-01-05T02:58:54.505Z,11.30
2018-01-05T03:01:22.118Z,11.40
2018-01-05T03:03:50.503Z,11.40
2018-01-05T03:06:18.102Z,11.30
2018-01-05T03:08:45.663Z,11.30
2018-01-05T03:11:13.264Z,11.30
2018-01-05T03:13:40.757Z,11.30
2018-01-05T03:16:09.086Z,11.30
2018-01-05T03:18:36.697Z,11.30
2018-01-05T03:21:05.039Z,11.20
2018-01-05T03:23:32.611Z,11.20
2018-01-05T03:26:00.109Z,11.20
2018-01-05T03:28:27.692Z,11.00
2018-01-05T03:30:55.329Z,11.10
2018-01-05T03:33:22.887Z,11.10
2018-01-05T03:35:50.477Z,11.00
2018-01-05T03:38:18.122Z,11.00
2018-01-05T03:40:45.731Z,11.00
2018-01-05T03:43:14.151Z,10.90
2018-01-05T03:45:41.780Z,10.80
2018-01-05T03:48:10.023Z,11.00
2018-01-05T03:50:44.904Z,10.90
2018-01-05T03:53:13.262Z,11.00
2018-01-05T03:55:40.855Z,11.10
2018-01-05T03:58:08.448Z,11.10
2018-01-05T04:00:36.118Z,11.20
2018-01-05T04:03:05.621Z,11.00
2018-01-05T04:05:33.253Z,10.90
2018-01-05T04:08:01.971Z,10.70
2018-01-05T04:10:29.523Z,10.60
2018-01-05T04:12:57.216Z,10.50
2018-01-05T04:15:24.796Z,10.70
2018-01-05T04:17:52.314Z,10.70
2018-01-05T04:20:19.949Z,10.90
2018-01-05T04:22:47.484Z,10.90
2018-01-05T04:25:15.315Z,11.00
2018-01-05T04:27:42.865Z,10.90
2018-01-05T04:30:10.444Z,10.70
2018-01-05T04:32:38.859Z,10.80
2018-01-05T04:35:06.421Z,10.80
2018-01-05T04:37:41.571Z,10.90
2018-01-05T04:40:09.126Z,10.90
2018-01-05T04:42:36.760Z,10.70
2018-01-05T04:45:04.441Z,10.70
2018-01-05T04:47:32.066Z,10.70
2018-01-05T04:50:00.510Z,10.70
2018-01-05T04:52:28.106Z,10.60
2018-01-05T04:54:55.732Z,10.70
2018-01-05T04:57:23.543Z,10.80
2018-01-05T04:59:51.089Z,10.90
2018-01-05T05:02:19.538Z,11.00
2018-01-05T05:04:47.139Z,10.90
2018-01-05T05:07:14.746Z,11.00
2018-01-05T05:09:54.810Z,10.90
2018-01-05T05:12:22.391Z,10.90
2018-01-05T05:14:49.988Z,10.90
2018-01-05T05:17:17.633Z,10.90
2018-01-05T05:19:45.227Z,10.90
2018-01-05T05:22:12.930Z,11.00
2018-01-05T05:24:41.260Z,11.00
2018-01-05T05:27:08.899Z,11.00
2018-01-05T05:29:55.722Z,11.00
2018-01-05T05:32:23.278Z,10.90
2018-01-05T05:34:50.931Z,10.90
2018-01-05T05:37:18.491Z,10.70
2018-01-05T05:39:46.223Z,10.80
2018-01-05T05:42:14.568Z,10.80
2018-01-05T05:44:42.169Z,10.70
2018-01-05T05:47:10.557Z,10.70
2018-01-05T05:49:38.168Z,10.60
2018-01-05T05:52:05.753Z,10.80
2018-01-05T05:54:34.221Z,10.80
2018-01-05T05:57:01.886Z,10.80
2018-01-05T05:59:29.443Z,10.80
2018-01-05T06:01:57.109Z,10.80
2018-01-05T06:04:24.720Z,10.70
2018-01-05T06:06:52.276Z,10.80
2018-01-05T06:09:20.048Z,10.70
2018-01-05T06:11:47.631Z,10.70
2018-01-05T06:14:15.989Z,10.60
2018-01-05T06:16:47.850Z,10.60
2018-01-05T06:19:15.560Z,10.60
2018-01-05T06:21:43.965Z,10.60
2018-01-05T06:24:11.545Z,10.50
2018-01-05T06:26:39.159Z,10.50
2018-01-05T06:29:07.467Z,10.50
2018-01-05T06:31:47.081Z,10.40
2018-01-05T06:34:14.693Z,10.30
2018-01-05T06:36:42.259Z,10.20
2018-01-05T06:39:10.036Z,10.20
2018-01-05T06:41:37.644Z,9.70
2018-01-05T06:44:08.887Z,9.70
2018-01-05T06:46:36.492Z,9.60
2018-01-05T06:49:04.112Z,9.60
2018-01-05T06:51:31.730Z,9.50
2018-01-05T06:53:59.276Z,9.60
2018-01-05T06:56:26.826Z,9.50
2018-01-05T06:58:54.410Z,9.40
2018-01-05T07:01:22.020Z,9.30
2018-01-05T07:03:49.682Z,9.20
2018-01-05T07:06:17.226Z,9.20
2018-01-05T07:08:44.865Z,9.10
2018-01-05T07:11:13.234Z,9.10
2018-01-05T07:13:51.323Z,9.10
2018-01-05T07:16:18.863Z,9.10
2018-01-05T07:18:46.449Z,8.90
2018-01-05T07:21:14.968Z,8.80
2018-01-05T07:23:42.527Z,8.70
2018-01-05T07:26:10.928Z,8.50
2018-01-05T07:28:38.509Z,8.40
2018-01-05T07:31:06.156Z,8.50
2018-01-05T07:33:33.761Z,8.60
2018-01-05T07:36:02.052Z,8.50
2018-01-05T07:38:30.400Z,8.40
2018-01-05T07:40:58.051Z,8.40
2018-01-05T07:43:25.865Z,8.40
2018-01-05T07:45:53.482Z,8.30
2018-01-05T07:48:21.146Z,8.30
2018-01-05T07:50:48.793Z,7.10
2018-01-05T07:53:16.367Z,8.20
2018-01-05T07:55:43.947Z,8.10
2018-01-05T07:58:12.250Z,8.10
2018-01-05T08:00:59.288Z,8.10
2018-01-05T08:03:26.921Z,8.10
2018-01-05T08:05:55.307Z,8.10
2018-01-05T08:08:22.829Z,8.00
2018-01-05T08:10:50.526Z,8.20
2018-01-05T08:13:18.201Z,8.20
2018-01-05T08:15:45.858Z,8.30
2018-01-05T08:18:13.413Z,8.40
2018-01-05T08:20:41.064Z,8.40
2018-01-05T08:23:08.678Z,8.40
2018-01-05T08:25:36.374Z,8.60
2018-01-05T08:28:04.793Z,8.70
2018-01-05T08:30:32.507Z,8.90
2018-01-05T08:33:00.920Z,9.00
2018-01-05T08:35:31.645Z,9.10
2018-01-05T08:37:59.352Z,9.10
2018-01-05T08:40:27.203Z,9.30
2018-01-05T08:43:15.887Z,9.60
2018-01-05T08:45:43.440Z,9.70
2018-01-05T08:48:11.017Z,9.90
2018-01-05T08:50:39.941Z,10.10
2018-01-05T08:56:14.720Z,10.60
2018-01-05T08:58:42.314Z,10.50
2018-01-05T09:01:11.491Z,11.20
2018-01-05T09:03:39.126Z,11.10
2018-01-05T09:06:06.744Z,11.40
2018-01-05T09:08:35.127Z,11.60
2018-01-05T09:11:02.780Z,11.60
2018-01-05T09:13:31.687Z,11.90
2018-01-05T09:15:59.368Z,11.80
2018-01-05T09:18:26.966Z,11.90
2018-01-05T09:20:54.536Z,11.80
2018-01-05T09:23:22.158Z,11.80
2018-01-05T09:25:49.821Z,11.80
2018-01-05T09:28:17.378Z,11.80
2018-01-05T09:30:45.011Z,12.00
2018-01-05T09:33:12.619Z,12.20
2018-01-05T09:35:40.218Z,12.10
2018-01-05T09:38:08.545Z,12.40
2018-01-05T09:40:36.519Z,12.30
2018-01-05T09:43:04.133Z,12.70
2018-01-05T09:45:31.687Z,12.80
2018-01-05T09:47:59.215Z,12.90
2018-01-05T09:50:26.877Z,13.20
2018-01-05T09:52:54.509Z,13.30
2018-01-05T09:55:22.079Z,13.30
2018-01-05T09:57:49.599Z,13.60
2018-01-05T10:00:17.196Z,13.80
2018-01-05T10:02:44.789Z,13.80
2018-01-05T10:05:12.425Z,14.00
2018-01-05T10:07:40.566Z,14.20
2018-01-05T10:10:08.128Z,14.50
2018-01-05T10:12:41.650Z,14.60
2018-01-05T10:15:09.212Z,14.60
2018-01-05T10:17:36.819Z,14.50
2018-01-05T10:20:04.493Z,14.50
2018-01-05T10:22:32.065Z,14.50
2018-01-05T10:24:59.757Z,14.70
2018-01-05T10:27:27.318Z,14.80
2018-01-05T10:29:54.868Z,14.70
2018-01-05T10:32:22.498Z,14.50
2018-01-05T10:34:50.037Z,14.40
2018-01-05T10:37:17.581Z,14.40
2018-01-05T10:39:45.193Z,14.30
2018-01-05T10:42:12.836Z,14.30
2018-01-05T10:44:40.411Z,14.30
2018-01-05T10:47:08.019Z,14.50
2018-01-05T10:52:41.393Z,14.80
2018-01-05T10:55:19.400Z,14.80
2018-01-05T10:57:50.430Z,14.90
2018-01-05T11:00:19.077Z,14.90
2018-01-05T11:02:55.910Z,14.90
2018-01-05T11:05:24.324Z,14.70
2018-01-05T11:07:51.960Z,14.70
2018-01-05T11:10:19.557Z,14.70
2018-01-05T11:12:47.923Z,14.60
2018-01-05T11:15:16.212Z,14.60
2018-01-05T11:17:44.793Z,14.60
2018-01-05T11:20:12.253Z,14.60
2018-01-05T11:22:39.808Z,14.50
2018-01-05T11:25:08.192Z,14.50
2018-01-05T11:27:35.833Z,14.40
2018-01-05T11:30:04.110Z,14.40
2018-01-05T11:32:33.344Z,14.50
2018-01-05T11:35:01.006Z,14.50
2018-01-05T11:37:28.621Z,14.70
2018-01-05T11:39:56.114Z,14.80
2018-01-05T11:42:23.804Z,15.00
2018-01-05T11:44:51.329Z,15.10
2018-01-05T11:47:19.006Z,15.00
2018-01-05T11:49:47.713Z,15.00
2018-01-05T11:52:15.299Z,15.10
2018-01-05T11:54:43.672Z,15.10
2018-01-05T11:57:11.204Z,15.10
2018-01-05T11:59:38.868Z,15.00
2018-01-05T12:02:06.464Z,14.90
2018-01-05T12:04:36.852Z,15.10
2018-01-05T12:07:05.280Z,15.00
2018-01-05T12:09:32.893Z,14.80
2018-01-05T12:12:00.939Z,14.70
2018-01-05T12:14:28.964Z,14.60
2018-01-05T12:16:57.813Z,14.60
2018-01-05T12:19:25.394Z,14.60
2018-01-05T12:21:53.034Z,14.60
2018-01-05T12:24:20.639Z,14.60
2018-01-05T12:26:48.267Z,14.50
2018-01-05T12:29:15.838Z,14.50
2018-01-05T12:31:44.266Z,14.50
2018-01-05T12:34:11.809Z,14.40
2018-01-05T12:36:39.352Z,14.60
2018-01-05T12:39:07.788Z,14.50
2018-01-05T12:41:35.382Z,14.50
2018-01-05T12:44:02.972Z,14.40
2018-01-05T12:46:30.552Z,14.30
2018-01-05T12:48:58.105Z,14.20
2018-01-05T12:51:25.667Z,14.30
2018-01-05T12:56:56.498Z,14.50
2018-01-05T12:59:24.824Z,14.30
2018-01-05T13:01:53.254Z,14.30
2018-01-05T13:04:21.819Z,14.20
2018-01-05T13:06:50.162Z,14.30
2018-01-05T13:09:17.702Z,14.20
2018-01-05T13:11:45.316Z,14.30
2018-01-05T13:14:13.705Z,14.40
2018-01-05T13:16:42.423Z,14.50
2018-01-05T13:19:16.500Z,14.50
2018-01-05T13:21:44.835Z,14.50
2018-01-05T13:24:12.512Z,14.50
2018-01-05T13:26:40.470Z,14.40
2018-01-05T13:29:08.138Z,14.60
2018-01-05T13:31:35.779Z,14.50
2018-01-05T13:34:03.330Z,14.50
2018-01-05T13:36:30.919Z,14.50
2018-01-05T13:38:59.306Z,14.60
2018-01-05T13:41:26.903Z,14.60
2018-01-05T13:44:07.513Z,14.60
2018-01-05T13:46:35.048Z,14.50
2018-01-05T13:49:02.704Z,14.50
2018-01-05T13:51:30.333Z,14.50
2018-01-05T13:53:58.665Z,14.50
2018-01-05T13:56:32.404Z,14.50
2018-01-05T13:59:00.846Z,14.50
2018-01-05T14:01:28.413Z,14.40
2018-01-05T14:03:55.951Z,14.40
2018-01-05T14:06:23.544Z,14.40
2018-01-05T14:08:51.180Z,14.40
2018-01-05T14:11:18.859Z,14.40
2018-01-05T14:13:46.447Z,14.40
2018-01-05T14:16:13.934Z,14.30
2018-01-05T14:18:41.506Z,14.30
2018-01-05T14:21:09.100Z,14.30
2018-01-05T14:23:36.662Z,14.30
2018-01-05T14:26:04.287Z,14.40
2018-01-05T14:28:31.869Z,14.40
2018-01-05T14:30:59.489Z,14.40
2018-01-05T14:33:27.075Z,14.40
2018-01-05T14:35:54.707Z,14.40
2018-01-05T14:38:22.275Z,14.40
2018-01-05T14:40:49.817Z,14.30
2018-01-05T14:43:17.398Z,14.30
2018-01-05T14:46:03.847Z,14.30
2018-01-05T14:48:31.421Z,14.20
2018-01-05T14:50:59.762Z,14.20
2018-01-05T14:53:27.333Z,14.10
2018-01-05T15:01:44.660Z,14.10
2018-01-05T15:04:12.217Z,13.80
2018-01-05T15:06:39.837Z,13.80
2018-01-05T15:09:07.466Z,13.70
2018-01-05T15:11:35.012Z,13.70
2018-01-05T15:14:02.605Z,13.70
2018-01-05T15:16:30.897Z,13.70
2018-01-05T15:18:59.292Z,13.70
2018-01-05T15:21:26.817Z,13.70
2018-01-05T15:23:54.903Z,13.60
2018-01-05T15:26:22.453Z,13.60
2018-01-05T15:28:50.799Z,13.40
2018-01-05T15:31:18.361Z,13.40
2018-01-05T15:33:46.062Z,13.30
2018-01-05T15:36:14.475Z,13.10
2018-01-05T15:38:42.010Z,13.10
2018-01-05T15:41:09.588Z,13.10
2018-01-05T15:43:37.131Z,13.10
2018-01-05T15:46:29.794Z,13.10
2018-01-05T15:48:57.370Z,13.10
2018-01-05T15:51:24.942Z,13.10
2018-01-05T15:53:52.480Z,13.10
2018-01-05T15:56:20.064Z,13.00
2018-01-05T15:58:47.620Z,13.00
2018-01-05T16:01:15.259Z,12.90
2018-01-05T16:03:42.973Z,12.90
2018-01-05T16:06:10.699Z,12.80
2018-01-05T16:08:38.276Z,12.70
2018-01-05T16:11:05.806Z,12.60
2018-01-05T16:13:33.419Z,12.50
2018-01-05T16:16:01.006Z,12.50
2018-01-05T16:18:28.643Z,12.40
2018-01-05T16:20:56.276Z,12.40
2018-01-05T16:23:23.898Z,12.40
2018-01-05T16:25:52.435Z,12.40
2018-01-05T16:28:20.772Z,12.40
2018-01-05T16:30:48.363Z,12.40
2018-01-05T16:33:15.936Z,12.30
2018-01-05T16:35:44.262Z,12.30
2018-01-05T16:38:11.882Z,12.30
2018-01-05T16:40:39.650Z,12.30
2018-01-05T16:43:07.189Z,12.20
2018-01-05T16:45:35.316Z,12.20
2018-01-05T16:48:02.973Z,12.10
2018-01-05T16:50:30.518Z,12.10
2018-01-05T16:52:58.111Z,12.10
2018-01-05T16:55:25.659Z,12.20
2018-01-05T16:57:53.259Z,12.20
2018-01-05T17:00:21.640Z,12.10
2018-01-05T17:05:50.938Z,12.10
2018-01-05T17:08:18.542Z,11.90
2018-01-05T17:10:46.266Z,11.90
2018-01-05T17:13:14.693Z,11.80
2018-01-05T17:15:42.397Z,11.80
2018-01-05T17:18:09.973Z,11.80
2018-01-05T17:20:39.865Z,11.70
2018-01-05T17:23:07.537Z,11.60
2018-01-05T17:25:36.354Z,11.50
2018-01-05T17:30:57.190Z,11.50
2018-01-05T17:33:24.767Z,11.30
2018-01-05T17:35:52.387Z,11.20
2018-01-05T17:38:39.785Z,11.20
2018-01-05T17:41:07.412Z,11.20
2018-01-05T17:43:35.037Z,11.20
2018-01-05T17:46:03.475Z,11.20
2018-01-05T17:48:31.162Z,11.20
2018-01-05T17:50:58.837Z,11.20
2018-01-05T17:53:27.229Z,11.20
2018-01-05T17:55:55.707Z,11.20
2018-01-05T17:58:23.318Z,10.90
2018-01-05T18:00:50.902Z,11.00
2018-01-05T18:03:19.268Z,11.10
2018-01-05T18:05:46.874Z,11.20
2018-01-05T18:08:14.545Z,11.20
2018-01-05T18:13:37.065Z,11.10
2018-01-05T18:16:05.384Z,11.10
2018-01-05T18:18:32.963Z,11.00
2018-01-05T18:21:08.759Z,11.00
2018-01-05T18:23:37.109Z,10.80
2018-01-05T18:26:04.794Z,10.80
2018-01-05T18:28:33.168Z,10.80
2018-01-05T18:31:01.514Z,10.80
2018-01-05T18:33:29.844Z,10.70
2018-01-05T18:35:57.430Z,10.80
2018-01-05T18:38:25.042Z,10.70
2018-01-05T18:40:53.332Z,10.50
2018-01-05T18:43:20.950Z,10.50
2018-01-05T18:45:48.681Z,10.50
2018-01-05T18:48:16.274Z,10.40
2018-01-05T18:50:43.913Z,10.40
2018-01-05T18:53:11.661Z,10.40
2018-01-05T18:55:39.307Z,10.40
2018-01-05T18:58:07.641Z,10.40
2018-01-05T19:00:35.380Z,10.40
2018-01-05T19:03:03.005Z,10.50
2018-01-05T19:05:30.615Z,10.50
2018-01-05T19:07:58.659Z,10.50
2018-01-05T19:10:26.379Z,10.40
2018-01-05T19:12:53.900Z,10.30
2018-01-05T19:15:24.569Z,10.40
2018-01-05T19:17:52.941Z,10.30
2018-01-05T19:20:21.274Z,10.30
2018-01-05T19:22:58.716Z,10.30
2018-01-05T19:25:26.294Z,10.30
2018-01-05T19:27:53.995Z,10.30
2018-01-05T19:30:21.696Z,10.20
2018-01-05T19:32:50.042Z,10.20
2018-01-05T19:38:17.354Z,10.10
2018-01-05T19:40:45.703Z,10.20
2018-01-05T19:43:13.330Z,10.20
2018-01-05T19:45:40.990Z,10.10
2018-01-05T19:48:08.672Z,10.20
2018-01-05T19:50:49.284Z,10.30
2018-01-05T19:53:17.617Z,10.30
2018-01-05T19:55:45.227Z,10.20
2018-01-05T19:58:13.594Z,10.30
2018-01-05T20:00:41.236Z,10.20
2018-01-05T20:03:08.807Z,10.20
2018-01-05T20:05:37.198Z,10.20
2018-01-05T20:08:05.633Z,10.20
2018-01-05T20:10:34.092Z,10.20
2018-01-05T20:13:01.751Z,10.10
2018-01-05T20:15:30.604Z,10.10
2018-01-05T20:17:58.967Z,10.00
2018-01-05T20:23:21.322Z,9.80
2018-01-05T20:25:48.940Z,9.70
2018-01-05T20:28:16.661Z,9.70
2018-01-05T20:30:44.981Z,9.70
2018-01-05T20:33:12.550Z,9.60
2018-01-05T20:38:41.471Z,9.60
2018-01-05T20:41:09.037Z,9.60
2018-01-05T20:43:42.460Z,9.50
2018-01-05T20:46:10.099Z,9.60
2018-01-05T20:48:37.738Z,9.60
2018-01-05T20:51:05.355Z,9.60
2018-01-05T20:53:51.568Z,9.60
2018-01-05T20:56:19.167Z,9.60
2018-01-05T20:58:46.771Z,9.70
2018-01-05T21:01:15.315Z,9.90
2018-01-05T21:03:43.409Z,9.90
2018-01-05T21:06:11.864Z,10.00
2018-01-05T21:08:39.425Z,9.90
2018-01-05T21:11:07.762Z,10.00
2018-01-05T21:13:35.327Z,10.00
2018-01-05T21:16:02.977Z,10.00
2018-01-05T21:18:30.532Z,9.90
2018-01-05T21:20:58.167Z,10.10
2018-01-05T21:23:26.560Z,9.80
2018-01-05T21:25:55.120Z,9.80
2018-01-05T21:28:23.498Z,9.90
2018-01-05T21:30:51.246Z,10.00
2018-01-05T21:33:18.997Z,9.90
2018-01-05T21:35:46.827Z,9.90
2018-01-05T21:38:25.339Z,10.00
2018-01-05T21:40:52.967Z,10.10
2018-01-05T21:46:15.712Z,9.90
2018-01-05T21:48:45.249Z,9.90
2018-01-05T21:51:13.742Z,10.00
2018-01-05T21:53:42.066Z,10.00
2018-01-05T21:59:22.461Z,10.00
2018-01-05T22:01:50.069Z,9.90
2018-01-05T22:04:17.700Z,9.90
2018-01-05T22:06:45.299Z,10.00
2018-01-05T22:09:12.860Z,9.90
2018-01-05T22:11:40.509Z,9.90
2018-01-05T22:14:08.092Z,9.90
2018-01-05T22:16:35.715Z,9.90
2018-01-05T22:24:50.172Z,9.70
2018-01-05T22:27:17.763Z,9.70
2018-01-05T22:29:45.752Z,9.70
2018-01-05T22:32:38.692Z,9.70
2018-01-05T22:35:06.767Z,9.70
2018-01-05T22:37:34.706Z,9.70
2018-01-05T22:40:02.930Z,9.70
2018-01-05T22:42:30.601Z,9.80
2018-01-05T22:44:58.197Z,9.70
2018-01-05T22:47:25.809Z,9.80
2018-01-05T22:50:10.160Z,9.80
2018-01-05T22:52:37.838Z,9.70
2018-01-05T23:01:08.575Z,9.90
2018-01-05T23:03:40.051Z,9.80
2018-01-05T23:06:14.226Z,9.80
2018-01-05T23:08:43.228Z,9.80
2018-01-05T23:11:18.166Z,9.80
2018-01-05T23:13:46.096Z,8.40
2018-01-05T23:16:14.504Z,9.80
2018-01-05T23:18:43.211Z,9.70
2018-01-05T23:21:11.921Z,9.90
2018-01-05T23:23:43.096Z,9.90
2018-01-05T23:26:13.781Z,9.90
2018-01-05T23:28:44.623Z,9.90
2018-01-05T23:31:12.456Z,9.90
2018-01-05T23:33:44.009Z,9.80
2018-01-05T23:36:11.752Z,9.70
2018-01-05T23:38:39.530Z,9.80
2018-01-05T23:41:07.610Z,9.80
2018-01-05T23:43:35.306Z,9.80
2018-01-05T23:46:04.057Z,9.80
2018-01-05T23:48:32.235Z,9.80
2018-01-05T23:51:00.017Z,9.80
2018-01-05T23:53:27.776Z,9.90
2018-01-05T23:55:56.755Z,9.90
2018-01-05T23:58:37.941Z,9.90
